Norske Flyklubber
Antall som skal vises: 
Nr. Nettlenke Treff
1   Link   Aerobatic Club of Norway
1811
2   Link   Bardufoss Flyklubb
2569
3   Link   Bergen Aero Klubb
2256
4   Link   Bodø Flyklubb
2237
5   Link   Borg Flyklubb
1816
6   Link   Drammen Flyklubb
5493
7   Link   Elverum Flyklubb
1872
8   Link   Follo Flyklubb
2044
9   Link   Gardermoen Flyklubb
1897
10   Link   Grenland Flyklubb
3583
11   Link   Gudbrandsdal Flyklubb
2435
12   Link   Hattfjelldal Flyklubb
2499
13   Link   Hedmark Flyklubb
1869
14   Link   Kilen Sjøflyklubb
2351
15   Link   Klanten Flyklubb
1983
16   Link   Land Flyklubb
2272
17   Link   Lofoten Flyklubb
2477
18   Link   Møre Flyklubb
1829
19   Link   Nedre Romerike Flyklubb
1843
20   Link   Nome Flyklubb
2369
«StartForrige12NesteSiste»
Side 1 av 2
 
METAR
2018/12/18 10:50 ENCN 181050Z 04009KT 9999 BKN019 00/M01 Q1022
TAF
2018/12/18 09:36 TAF TAF ENCN 180800Z 1809/1818 05005KT 9999 FEW012 BKN025 BECMG 1813/1815 4000 -SN VV008
LN-KFK
Operativ VFR-natt
VFR dag
08:19 - 16:29
Brannvakt
Inaktiv
Banner
Banner
Banner
Banner
Banner